Time;durP1;ratioP1;P1;durP2;ratioP2;P2;SDS_P1;SDS_P2;PMS_P1;PMS_P2;Temp;Humidity;BMP_temperature;BMP_pressure;BME280_temperature;BME280_humidity;BME280_pressure;Samples;Min_cycle;Max_cycle;Signal;HPM_P1;HPM_P2
2023/10/18 00:02:23;;;;;;;17.10;11.00;;;;;;;2.38;90.04;96941.73;109080;1273;22558;-76
2023/10/18 00:04:56;;;;;;;18.50;11.90;;;;;;;2.42;90.09;96941.75;109089;1266;22511;-76
2023/10/18 00:07:28;;;;;;;19.40;11.00;;;;;;;2.51;90.23;96940.79;109138;1273;22566;-75
2023/10/18 00:10:01;;;;;;;15.20;10.60;;;;;;;2.59;90.14;96940.98;109065;1273;22519;-76
2023/10/18 00:12:34;;;;;;;15.90;11.00;;;;;;;2.65;90.21;96940.70;109061;1273;23685;-76
2023/10/18 00:15:09;;;;;;;17.20;9.90;;;;;;;2.71;90.13;96935.86;109066;1273;22514;-76
2023/10/18 00:17:40;;;;;;;17.20;7.00;;;;;;;2.72;89.97;96931.48;109060;1269;22522;-76
2023/10/18 00:20:15;;;;;;;16.50;10.50;;;;;;;2.73;90.10;96927.38;109050;1273;23687;-75
2023/10/18 00:22:47;;;;;;;14.30;10.00;;;;;;;2.74;89.98;96928.67;109108;1273;23049;-76
2023/10/18 00:25:20;;;;;;;12.10;8.20;;;;;;;2.73;89.91;96930.06;109087;1271;23810;-75
2023/10/18 00:27:51;;;;;;;16.20;10.90;;;;;;;2.72;89.77;96924.89;109023;1273;22550;-76
2023/10/18 00:30:22;;;;;;;14.20;10.00;;;;;;;2.68;89.68;96923.73;109039;1271;22513;-76
2023/10/18 00:32:54;;;;;;;14.70;9.20;;;;;;;2.62;89.54;96921.89;109054;1273;22654;-76
2023/10/18 00:35:31;;;;;;;13.80;9.00;;;;;;;2.60;89.66;96920.64;109052;1273;25417;-76
2023/10/18 00:38:08;;;;;;;15.70;9.40;;;;;;;2.60;89.60;96918.23;109065;1272;22602;-76
2023/10/18 00:40:40;;;;;;;15.20;9.50;;;;;;;2.57;89.51;96913.59;109095;1268;22594;-76
2023/10/18 00:43:16;;;;;;;13.60;9.70;;;;;;;2.58;89.75;96907.94;109036;1273;25425;-76
2023/10/18 00:45:50;;;;;;;14.80;9.10;;;;;;;2.64;89.81;96905.15;109107;1272;22500;-75
2023/10/18 00:48:24;;;;;;;14.30;9.40;;;;;;;2.68;89.80;96896.82;109091;1273;25244;-75
2023/10/18 00:51:05;;;;;;;15.80;10.90;;;;;;;2.70;89.63;96896.52;109102;1269;22605;-76
2023/10/18 00:53:37;;;;;;;17.80;11.00;;;;;;;2.70;89.55;96900.19;109077;1266;22594;-75
2023/10/18 00:56:11;;;;;;;13.90;9.20;;;;;;;2.70;89.45;96902.48;109050;1266;22559;-75
2023/10/18 00:58:44;;;;;;;15.70;10.10;;;;;;;2.70;89.48;96900.14;109100;1271;24247;-76
2023/10/18 01:01:19;;;;;;;16.20;10.40;;;;;;;2.71;89.33;96894.21;109074;1272;22521;-76
2023/10/18 01:03:51;;;;;;;16.10;10.20;;;;;;;2.70;89.39;96896.73;109083;1273;22466;-76
2023/10/18 01:06:24;;;;;;;13.00;8.90;;;;;;;2.68;89.22;96898.46;109034;1273;24234;-76
2023/10/18 01:08:56;;;;;;;13.30;9.30;;;;;;;2.66;89.15;96898.20;109042;1273;23341;-75
2023/10/18 01:11:28;;;;;;;16.60;10.50;;;;;;;2.69;89.26;96893.20;109070;1273;22543;-75
2023/10/18 01:14:00;;;;;;;13.60;8.60;;;;;;;2.69;89.18;96890.29;109162;1251;22521;-75
2023/10/18 01:16:35;;;;;;;15.00;10.30;;;;;;;2.71;89.14;96884.26;109071;1273;22495;-76
2023/10/18 01:19:08;;;;;;;13.40;9.10;;;;;;;2.74;89.17;96877.20;108988;1273;22544;-75
2023/10/18 01:21:42;;;;;;;13.30;8.90;;;;;;;2.75;89.09;96877.12;109118;1270;22767;-76
2023/10/18 01:24:15;;;;;;;14.10;9.80;;;;;;;2.75;89.06;96875.55;109079;1273;23297;-75
2023/10/18 01:26:47;;;;;;;16.90;9.60;;;;;;;2.77;89.09;96874.39;109090;1267;23328;-76
2023/10/18 01:29:18;;;;;;;11.60;6.60;;;;;;;2.76;89.14;96875.52;109029;1273;22597;-76
2023/10/18 01:31:49;;;;;;;14.00;8.10;;;;;;;2.78;89.12;96872.00;109098;1273;22561;-76
2023/10/18 01:34:21;;;;;;;14.20;8.70;;;;;;;2.78;89.02;96869.86;109103;1267;22462;-76
2023/10/18 01:36:57;;;;;;;14.20;9.30;;;;;;;2.74;88.94;96866.73;109053;1273;22585;-75
2023/10/18 01:39:31;;;;;;;14.70;9.10;;;;;;;2.72;88.93;96869.83;109066;1273;25487;-76
2023/10/18 01:42:06;;;;;;;15.50;9.70;;;;;;;2.72;88.90;96868.98;109075;1273;22466;-76
2023/10/18 01:44:38;;;;;;;14.80;9.70;;;;;;;2.70;88.82;96870.14;109094;1269;22486;-76
2023/10/18 01:47:12;;;;;;;15.30;8.90;;;;;;;2.68;88.76;96872.23;109068;1272;22526;-76
2023/10/18 01:49:46;;;;;;;16.00;9.70;;;;;;;2.68;88.77;96872.46;109057;1273;22527;-76
2023/10/18 01:52:19;;;;;;;15.30;9.00;;;;;;;2.69;88.68;96866.61;109038;1273;22725;-76
2023/10/18 01:54:51;;;;;;;13.00;9.70;;;;;;;2.67;88.52;96867.35;109117;1273;24213;-76
2023/10/18 01:57:22;;;;;;;13.80;10.10;;;;;;;2.69;88.61;96867.02;109048;1272;24209;-76
2023/10/18 01:59:55;;;;;;;15.40;9.30;;;;;;;2.68;88.41;96869.73;109065;1272;22518;-76
2023/10/18 02:02:26;;;;;;;16.20;9.40;;;;;;;2.63;88.26;96869.37;109057;1273;25418;-76
2023/10/18 02:04:57;;;;;;;12.00;7.60;;;;;;;2.59;88.19;96870.27;109098;1272;25417;-76
2023/10/18 02:07:28;;;;;;;13.00;6.80;;;;;;;2.56;88.31;96871.24;109067;1273;22505;-76
2023/10/18 02:10:00;;;;;;;10.70;7.30;;;;;;;2.58;88.38;96879.39;109116;1273;22638;-75
2023/10/18 02:12:36;;;;;;;13.90;8.80;;;;;;;2.60;88.41;96880.13;109040;1273;24250;-75
2023/10/18 02:15:08;;;;;;;13.50;8.90;;;;;;;2.59;88.49;96877.65;109059;1273;22487;-76
2023/10/18 02:17:40;;;;;;;14.70;8.40;;;;;;;2.58;88.47;96875.32;109042;1270;22511;-76
2023/10/18 02:20:25;;;;;;;12.90;7.20;;;;;;;2.56;88.40;96871.98;109026;1267;22510;-76
2023/10/18 02:22:59;;;;;;;13.80;8.20;;;;;;;2.56;88.45;96873.17;109087;1270;25421;-75
2023/10/18 02:25:44;;;;;;;13.40;8.90;;;;;;;2.55;88.35;96876.65;109110;1270;22507;-76
2023/10/18 02:28:27;;;;;;;14.00;9.20;;;;;;;2.50;88.20;96880.33;109058;1270;23819;-76
2023/10/18 02:31:09;;;;;;;15.20;10.10;;;;;;;2.45;88.22;96878.66;109057;1270;22519;-75
2023/10/18 02:33:42;;;;;;;15.90;9.50;;;;;;;2.45;88.34;96879.67;109068;1267;24420;-76
2023/10/18 02:36:21;;;;;;;18.70;10.60;;;;;;;2.43;88.31;96878.98;109052;1273;22540;-75
2023/10/18 02:38:53;;;;;;;15.00;8.00;;;;;;;2.42;88.36;96881.30;109074;1265;22650;-77
2023/10/18 02:41:26;;;;;;;14.40;10.30;;;;;;;2.39;88.25;96882.16;109108;1270;23029;-77
2023/10/18 02:43:58;;;;;;;12.20;7.40;;;;;;;2.37;88.39;96877.93;109038;1252;22559;-77
2023/10/18 02:46:33;;;;;;;14.90;10.30;;;;;;;2.39;88.61;96882.47;109089;1269;22549;-77
2023/10/18 02:49:08;;;;;;;14.70;8.30;;;;;;;2.39;88.54;96877.40;109045;1267;23544;-77
2023/10/18 02:51:40;;;;;;;11.80;8.00;;;;;;;2.37;88.64;96875.89;109089;1273;22568;-76
2023/10/18 02:54:16;;;;;;;15.90;9.40;;;;;;;2.37;88.50;96878.34;109027;1269;22585;-77
2023/10/18 02:56:51;;;;;;;14.10;9.80;;;;;;;2.37;88.60;96876.72;109095;1273;22535;-76
2023/10/18 02:59:24;;;;;;;14.10;9.30;;;;;;;2.40;88.77;96869.02;109061;1267;22522;-76
2023/10/18 03:01:57;;;;;;;13.30;10.00;;;;;;;2.51;89.02;96867.20;109102;1273;22573;-77
2023/10/18 03:04:29;;;;;;;15.70;10.20;;;;;;;2.60;88.88;96865.31;109088;1273;22541;-77
2023/10/18 03:07:04;;;;;;;13.30;7.50;;;;;;;2.62;88.77;96864.67;109069;1267;24363;-77
2023/10/18 03:09:49;;;;;;;9.50;5.70;;;;;;;2.64;88.75;96867.35;109029;1273;25342;-76
2023/10/18 03:12:21;;;;;;;12.10;8.10;;;;;;;2.68;88.72;96866.47;109087;1268;22522;-76
2023/10/18 03:14:55;;;;;;;13.10;8.40;;;;;;;2.65;88.55;96863.70;109056;1273;22545;-76
2023/10/18 03:17:32;;;;;;;11.50;8.70;;;;;;;2.61;88.53;96865.33;109057;1273;22540;-76
2023/10/18 03:20:19;;;;;;;16.50;9.10;;;;;;;2.53;88.37;96871.35;109031;1273;22526;-76
2023/10/18 03:22:52;;;;;;;;;;;;;;;2.46;88.34;96875.88;109108;1270;22496;-76
2023/10/18 03:25:27;;;;;;;17.40;10.90;;;;;;;2.42;88.33;96873.04;109071;1273;22514;-76
2023/10/18 03:28:04;;;;;;;14.00;9.50;;;;;;;2.36;88.33;96877.74;109087;1273;23970;-76
2023/10/18 03:30:45;;;;;;;11.70;8.10;;;;;;;2.32;88.39;96870.16;109031;1273;22533;-76
2023/10/18 03:33:16;;;;;;;12.90;8.70;;;;;;;2.33;88.38;96869.50;109049;1273;25403;-76
2023/10/18 03:36:00;;;;;;;14.40;8.80;;;;;;;2.31;88.31;96870.34;109076;1273;22533;-76
2023/10/18 03:38:39;;;;;;;12.50;7.90;;;;;;;2.29;88.36;96859.77;109066;1267;25352;-76
2023/10/18 03:41:17;;;;;;;15.40;8.60;;;;;;;2.30;88.51;96856.17;109060;1273;22528;-76
2023/10/18 03:43:49;;;;;;;15.60;9.30;;;;;;;2.33;88.66;96858.03;109161;1273;22533;-76
2023/10/18 03:46:21;;;;;;;13.10;9.40;;;;;;;2.39;88.81;96857.39;109088;1270;24967;-76
2023/10/18 03:48:54;;;;;;;10.30;5.90;;;;;;;2.43;88.75;96857.48;109100;1273;22527;-76
2023/10/18 03:51:26;;;;;;;13.00;9.10;;;;;;;2.43;88.80;96854.06;109114;1273;22514;-76
2023/10/18 03:54:00;;;;;;;11.30;8.20;;;;;;;2.45;88.72;96854.69;109032;1273;25240;-76
2023/10/18 03:56:36;;;;;;;12.00;7.50;;;;;;;2.47;88.82;96850.30;109116;1273;22624;-76
2023/10/18 03:59:19;;;;;;;11.30;6.40;;;;;;;2.45;88.82;96845.81;109068;1270;24218;-76
2023/10/18 04:02:05;;;;;;;13.60;7.60;;;;;;;2.47;88.89;96837.85;109122;1270;22515;-76
2023/10/18 04:04:40;;;;;;;12.80;9.00;;;;;;;2.48;88.78;96835.42;109094;1267;22723;-76
2023/10/18 04:07:16;;;;;;;13.60;8.30;;;;;;;2.44;88.71;96832.48;109092;1273;22917;-77
2023/10/18 04:09:53;;;;;;;13.00;8.90;;;;;;;2.42;88.73;96822.48;109101;1273;22721;-76
2023/10/18 04:12:26;;;;;;;16.40;7.90;;;;;;;2.39;88.48;96824.14;109049;1273;22523;-76
2023/10/18 04:15:00;;;;;;;11.80;8.10;;;;;;;2.33;88.59;96823.67;109071;1273;24859;-76
2023/10/18 04:17:38;;;;;;;13.30;8.30;;;;;;;2.32;88.41;96818.56;109046;1273;22518;-76
2023/10/18 04:20:22;;;;;;;12.80;7.30;;;;;;;2.31;88.61;96821.04;109055;1267;25294;-76
2023/10/18 04:22:53;;;;;;;10.20;7.00;;;;;;;2.30;88.51;96814.02;109108;1273;22582;-76
2023/10/18 04:25:27;;;;;;;13.40;9.20;;;;;;;2.25;88.48;96812.20;109052;1273;22565;-76
2023/10/18 04:27:59;;;;;;;15.40;8.80;;;;;;;2.20;88.57;96808.13;109076;1267;22514;-76
2023/10/18 04:30:36;;;;;;;16.80;8.90;;;;;;;2.14;88.41;96810.75;109075;1272;22512;-76
2023/10/18 04:33:24;;;;;;;9.80;6.40;;;;;;;2.09;88.48;96812.52;109068;1266;22507;-76
2023/10/18 04:35:57;;;;;;;10.40;6.30;;;;;;;2.04;88.75;96813.14;109082;1273;22999;-76
2023/10/18 04:38:36;;;;;;;13.10;7.90;;;;;;;2.00;88.63;96815.12;109057;1273;22538;-76
2023/10/18 04:41:10;;;;;;;9.60;6.30;;;;;;;1.97;88.73;96820.33;109085;1273;22515;-76
2023/10/18 04:43:42;;;;;;;9.30;6.30;;;;;;;1.95;88.73;96826.23;109064;1273;24180;-76
2023/10/18 04:46:18;;;;;;;11.10;7.30;;;;;;;1.94;89.43;96828.73;109088;1273;22638;-76
2023/10/18 04:49:16;;;;;;;11.80;6.60;;;;;;;1.94;89.31;96832.76;109031;1273;22525;-76
2023/10/18 04:51:48;;;;;;;10.10;6.40;;;;;;;1.99;89.48;96836.02;109083;1273;22519;-76
2023/10/18 04:54:35;;;;;;;10.00;5.80;;;;;;;2.05;89.55;96832.52;109047;1273;23958;-77
2023/10/18 04:57:10;;;;;;;11.60;6.60;;;;;;;2.10;89.78;96837.61;109054;1267;22511;-76
2023/10/18 04:59:52;;;;;;;9.10;6.80;;;;;;;2.10;89.58;96831.90;109058;1273;22537;-76
2023/10/18 05:02:29;;;;;;;8.70;5.20;;;;;;;2.13;89.77;96840.53;109096;1273;23571;-76
2023/10/18 05:05:10;;;;;;;11.70;8.70;;;;;;;2.15;89.55;96840.90;109102;1269;22525;-76
2023/10/18 05:07:47;;;;;;;10.40;5.20;;;;;;;2.14;89.50;96846.27;109079;1270;24254;-76
2023/10/18 05:10:21;;;;;;;10.80;6.80;;;;;;;2.14;89.48;96848.52;109108;1272;22677;-76
2023/10/18 05:13:01;;;;;;;9.00;5.40;;;;;;;2.15;89.44;96844.52;109099;1269;25410;-75
2023/10/18 05:15:35;;;;;;;13.30;8.00;;;;;;;2.17;89.45;96841.05;109083;1257;22581;-76
2023/10/18 05:18:15;;;;;;;14.60;8.30;;;;;;;2.19;89.51;96841.05;109054;1270;22535;-76
2023/10/18 05:20:55;;;;;;;11.20;6.60;;;;;;;2.22;89.43;96842.02;109100;1267;25362;-76
2023/10/18 05:23:26;;;;;;;11.90;8.00;;;;;;;2.20;89.29;96842.29;109088;1273;25280;-76
2023/10/18 05:26:08;;;;;;;9.70;5.40;;;;;;;2.23;89.42;96847.39;109112;1272;22511;-76
2023/10/18 05:28:49;;;;;;;11.80;8.00;;;;;;;2.24;89.24;96849.24;109079;1267;25295;-76
2023/10/18 05:34:22;;;;;;;9.40;5.50;;;;;;;2.65;89.74;96843.14;108980;1267;22518;-76
2023/10/18 05:36:58;;;;;;;11.10;7.60;;;;;;;2.92;89.41;96845.46;109095;1273;22525;-76
2023/10/18 05:39:48;;;;;;;12.20;5.70;;;;;;;3.15;88.98;96841.38;109081;1273;22524;-77
2023/10/18 05:42:21;;;;;;;10.30;7.20;;;;;;;3.40;88.47;96841.91;109138;1265;22519;-76
2023/10/18 05:44:55;;;;;;;10.10;6.40;;;;;;;3.65;87.90;96840.76;109085;1263;22514;-76
2023/10/18 05:47:29;;;;;;;10.80;6.80;;;;;;;3.91;87.52;96841.91;109103;1273;22518;-76
2023/10/18 05:50:05;;;;;;;8.60;5.40;;;;;;;4.19;86.94;96845.84;109087;1251;25995;-76
2023/10/18 05:52:39;;;;;;;9.50;6.70;;;;;;;4.48;86.14;96848.52;109103;1273;22518;-76
2023/10/18 05:55:12;;;;;;;9.10;6.00;;;;;;;4.71;85.26;96843.55;109099;1273;22526;-76
2023/10/18 05:57:45;;;;;;;9.00;5.90;;;;;;;4.75;83.89;96845.41;109103;1272;22528;-76
2023/10/18 06:00:18;;;;;;;9.50;5.10;;;;;;;4.82;82.72;96843.54;109086;1273;23838;-76
2023/10/18 06:02:52;;;;;;;8.60;5.50;;;;;;;5.02;82.32;96850.51;109077;1266;23794;-76
2023/10/18 06:05:27;;;;;;;10.30;6.50;;;;;;;5.41;81.87;96848.69;109053;1270;22458;-76
2023/10/18 06:08:01;;;;;;;10.90;6.90;;;;;;;5.71;81.39;96843.58;109081;1265;22544;-76
2023/10/18 06:10:38;;;;;;;9.40;6.30;;;;;;;6.08;80.87;96838.54;109112;1267;22493;-76
2023/10/18 06:13:18;;;;;;;8.70;5.80;;;;;;;6.21;79.67;96838.08;109080;1271;22600;-76
2023/10/18 06:15:53;;;;;;;8.30;5.90;;;;;;;6.30;78.85;96840.39;109085;1272;23867;-76
2023/10/18 06:18:30;;;;;;;7.60;5.40;;;;;;;6.49;78.49;96842.89;109112;1263;24365;-76
2023/10/18 06:21:11;;;;;;;9.60;6.00;;;;;;;6.81;77.79;96843.75;109102;1266;22583;-76
2023/10/18 06:23:42;;;;;;;10.10;6.80;;;;;;;7.25;77.23;96837.58;109086;1270;22525;-76
2023/10/18 06:26:31;;;;;;;7.20;5.60;;;;;;;7.53;76.36;96842.50;109129;1273;23795;-77
2023/10/18 06:29:11;;;;;;;7.60;5.80;;;;;;;7.97;75.41;96838.14;109097;1273;22515;-77
2023/10/18 06:31:43;;;;;;;10.80;6.30;;;;;;;8.37;74.69;96835.03;109100;1272;22524;-77
2023/10/18 06:34:17;;;;;;;8.40;5.40;;;;;;;9.10;74.87;96833.17;109078;1273;22645;-76
2023/10/18 06:36:52;;;;;;;7.60;5.40;;;;;;;10.02;74.03;96833.77;109118;1273;25453;-77
2023/10/18 06:39:28;;;;;;;8.50;6.40;;;;;;;10.35;72.29;96834.06;109077;1251;23154;-76
2023/10/18 06:42:06;;;;;;;8.30;5.80;;;;;;;10.32;70.22;96832.79;109115;1273;22562;-76
2023/10/18 06:44:37;;;;;;;9.20;7.00;;;;;;;9.39;66.70;96832.92;109093;1273;22532;-76
2023/10/18 06:47:13;;;;;;;8.50;6.20;;;;;;;9.22;67.30;96841.13;109110;1272;23808;-76
2023/10/18 06:49:47;;;;;;;7.90;5.50;;;;;;;9.11;66.75;96840.20;109071;1267;22741;-76
2023/10/18 06:52:21;;;;;;;6.90;5.40;;;;;;;9.05;65.99;96839.10;109100;1265;22565;-76
2023/10/18 06:54:54;;;;;;;10.10;6.20;;;;;;;8.89;65.35;96833.04;109078;1267;23760;-76
2023/10/18 06:57:35;;;;;;;7.40;5.80;;;;;;;8.64;64.49;96830.80;109064;1273;23534;-77
2023/10/18 07:00:11;;;;;;;9.20;6.00;;;;;;;8.34;64.95;96830.84;109067;1273;22980;-76
2023/10/18 07:02:45;;;;;;;9.50;6.50;;;;;;;8.75;65.90;96827.13;109055;1273;22543;-77
2023/10/18 07:05:19;;;;;;;7.50;6.50;;;;;;;9.14;65.68;96833.61;109090;1273;25310;-77
2023/10/18 07:07:50;;;;;;;8.00;6.00;;;;;;;9.36;65.51;96828.06;109084;1253;22618;-77
2023/10/18 07:10:52;;;;;;;7.90;6.90;;;;;;;9.67;65.26;96825.55;109066;1273;22935;-77
2023/10/18 07:13:14;;;;;;;8.10;6.30;;;;;;;10.12;64.43;96827.27;109116;1273;22521;-77
2023/10/18 07:15:45;;;;;;;7.70;6.20;;;;;;;10.00;62.82;96828.15;109075;1273;25487;-77
2023/10/18 07:18:20;;;;;;;8.50;6.90;;;;;;;10.06;62.70;96832.81;109099;1273;22525;-77
2023/10/18 07:20:59;;;;;;;9.50;7.20;;;;;;;10.39;62.50;96835.16;109057;1270;22542;-77
2023/10/18 07:23:36;;;;;;;11.10;8.90;;;;;;;10.62;61.95;96831.45;109146;1269;23316;-77
2023/10/18 07:26:13;;;;;;;9.10;6.90;;;;;;;10.87;61.77;96831.86;109114;1272;22509;-77
2023/10/18 07:28:44;;;;;;;11.80;7.30;;;;;;;11.14;60.34;96824.10;109043;1273;25094;-77
2023/10/18 07:31:17;;;;;;;10.40;8.00;;;;;;;11.04;59.41;96828.69;109025;1273;22525;-77
2023/10/18 07:33:50;;;;;;;10.60;8.10;;;;;;;11.01;59.76;96827.59;109088;1273;23966;-77
2023/10/18 07:36:22;;;;;;;11.80;8.20;;;;;;;11.05;58.90;96830.85;109041;1273;22551;-77
2023/10/18 07:38:56;;;;;;;10.80;8.40;;;;;;;10.88;58.58;96823.67;109077;1272;22589;-76
2023/10/18 07:41:27;;;;;;;12.20;8.80;;;;;;;11.02;58.92;96824.50;109089;1273;22819;-77
2023/10/18 07:44:00;;;;;;;10.90;8.10;;;;;;;11.20;58.81;96821.55;109083;1265;22638;-77
2023/10/18 07:46:39;;;;;;;10.70;7.10;;;;;;;11.50;59.14;96816.02;109094;1273;22528;-77
2023/10/18 07:49:13;;;;;;;9.50;7.10;;;;;;;11.66;57.81;96817.06;109114;1272;24229;-77
2023/10/18 07:51:55;;;;;;;10.70;7.40;;;;;;;11.40;57.30;96814.30;109064;1273;24211;-77
2023/10/18 07:54:27;;;;;;;9.10;6.80;;;;;;;11.44;58.27;96812.45;109043;1267;22953;-77
2023/10/18 07:57:01;;;;;;;13.40;7.30;;;;;;;11.95;58.39;96813.52;109051;1273;22513;-77
2023/10/18 07:59:33;;;;;;;9.60;7.30;;;;;;;12.15;57.93;96812.77;109102;1270;22465;-76
2023/10/18 08:02:19;;;;;;;9.00;7.20;;;;;;;12.60;58.08;96819.36;109083;1264;23854;-77
2023/10/18 08:04:51;;;;;;;11.40;7.30;;;;;;;13.43;58.33;96816.59;109071;1269;23979;-77
2023/10/18 08:07:29;;;;;;;9.70;7.50;;;;;;;14.14;57.47;96809.86;109113;1266;22720;-77
2023/10/18 08:10:08;;;;;;;11.40;8.20;;;;;;;14.03;56.54;96807.57;109148;1262;24417;-77
2023/10/18 08:12:40;;;;;;;10.50;8.00;;;;;;;14.14;56.13;96803.85;109086;1273;22614;-78
2023/10/18 08:15:14;;;;;;;10.10;7.00;;;;;;;14.45;56.38;96801.70;109066;1267;22885;-77
2023/10/18 08:17:50;;;;;;;10.80;7.60;;;;;;;14.45;55.16;96804.86;109110;1266;22566;-77
2023/10/18 08:23:36;;;;;;;9.60;7.40;;;;;;;14.06;55.06;96805.50;109054;1266;23720;-77
2023/10/18 08:26:07;;;;;;;10.70;7.00;;;;;;;13.64;55.00;96802.77;106650;1267;3286147;-77
2023/10/18 08:28:45;;;;;;;9.40;6.60;;;;;;;13.72;55.49;96800.08;109082;1270;26965;-77
2023/10/18 08:31:26;;;;;;;9.00;6.30;;;;;;;13.88;56.04;96798.05;109037;1273;22648;-77
2023/10/18 08:33:58;;;;;;;10.30;6.60;;;;;;;14.01;55.66;96798.71;109060;1270;22520;-77
2023/10/18 08:36:30;;;;;;;7.70;5.50;;;;;;;13.39;54.93;96802.13;109079;1265;24229;-78
2023/10/18 08:39:08;;;;;;;7.80;4.90;;;;;;;12.66;55.18;96794.16;109100;1272;22657;-76
2023/10/18 08:41:55;;;;;;;7.80;4.80;;;;;;;12.01;55.09;96792.55;109105;1273;22516;-77
2023/10/18 08:44:28;;;;;;;6.20;4.50;;;;;;;11.09;55.60;96787.36;109076;1272;22623;-78
2023/10/18 08:47:11;;;;;;;8.50;5.50;;;;;;;10.89;56.41;96787.17;109069;1266;24212;-77
2023/10/18 08:49:50;;;;;;;6.40;4.50;;;;;;;10.53;56.58;96784.80;109035;1270;24250;-77
2023/10/18 08:52:24;;;;;;;7.70;4.90;;;;;;;10.14;56.72;96782.73;109081;1266;22782;-77
2023/10/18 08:55:19;;;;;;;8.20;5.00;;;;;;;9.93;58.03;96779.02;109077;1266;23543;-77
2023/10/18 08:57:55;;;;;;;8.70;5.10;;;;;;;10.01;58.53;96776.51;109046;1273;22488;-77
2023/10/18 09:03:16;;;;;;;8.90;5.30;;;;;;;9.96;58.61;96781.91;109086;1273;22530;-77
2023/10/18 09:05:49;;;;;;;9.80;4.90;;;;;;;9.97;59.03;96781.23;109115;1262;22544;-77
2023/10/18 09:08:26;;;;;;;6.90;5.40;;;;;;;10.02;59.30;96777.56;109102;1266;22918;-77
2023/10/18 09:10:59;;;;;;;9.20;5.80;;;;;;;10.11;59.49;96780.27;108999;1273;22541;-77
2023/10/18 09:13:41;;;;;;;9.20;6.20;;;;;;;10.13;59.28;96779.22;108978;1271;22557;-77
2023/10/18 09:16:19;;;;;;;8.40;5.30;;;;;;;10.10;59.62;96780.59;109006;1273;25287;-77
2023/10/18 09:18:50;;;;;;;10.30;6.10;;;;;;;10.03;59.15;96777.02;109051;1272;24366;-77
2023/10/18 09:21:25;;;;;;;8.80;5.40;;;;;;;9.91;59.00;96775.31;109089;1272;22628;-77
2023/10/18 09:23:59;;;;;;;11.00;6.50;;;;;;;9.68;58.87;96774.48;109111;1269;22520;-78
2023/10/18 09:26:40;;;;;;;10.60;6.30;;;;;;;9.64;59.78;96767.91;109052;1272;22509;-77
2023/10/18 09:29:12;;;;;;;10.70;6.60;;;;;;;9.74;60.04;96766.35;109059;1273;22534;-77
2023/10/18 09:32:09;;;;;;;9.30;7.00;;;;;;;9.98;60.76;96763.37;109106;1272;22921;-78
2023/10/18 09:34:42;;;;;;;11.20;6.30;;;;;;;10.29;60.83;96760.20;109054;1272;22527;-77
2023/10/18 09:37:13;;;;;;;7.80;5.50;;;;;;;10.45;60.77;96754.84;109109;1269;24217;-77
2023/10/18 09:39:55;;;;;;;7.70;5.30;;;;;;;10.61;60.77;96755.06;109091;1273;24250;-77
2023/10/18 09:42:27;;;;;;;9.60;5.40;;;;;;;10.61;60.27;96753.31;109068;1266;23233;-78
2023/10/18 09:45:01;;;;;;;8.00;5.80;;;;;;;10.68;60.38;96754.01;109111;1265;22987;-78
2023/10/18 09:47:35;;;;;;;9.50;5.90;;;;;;;10.79;60.24;96752.66;109091;1265;22526;-78
2023/10/18 09:50:12;;;;;;;11.90;5.70;;;;;;;10.85;60.16;96750.08;109061;1273;22836;-77
2023/10/18 09:52:56;;;;;;;5.70;3.90;;;;;;;10.89;59.53;96749.58;109083;1269;22550;-79
2023/10/18 09:55:30;;;;;;;6.50;3.60;;;;;;;10.70;58.48;96747.42;109076;1270;22533;-78
2023/10/18 09:58:04;;;;;;;4.70;3.60;;;;;;;10.59;58.07;96747.87;109094;1273;22515;-78
2023/10/18 10:00:42;;;;;;;7.40;4.40;;;;;;;10.62;58.15;96742.65;109111;1264;22523;-78
2023/10/18 10:03:24;;;;;;;8.00;4.90;;;;;;;10.73;58.72;96741.57;109076;1273;23653;-78
2023/10/18 10:06:01;;;;;;;7.70;4.60;;;;;;;10.88;58.22;96735.84;109088;1272;22523;-78
2023/10/18 10:08:37;;;;;;;8.40;5.00;;;;;;;10.90;58.00;96738.48;109063;1272;22535;-77
2023/10/18 10:11:14;;;;;;;6.20;4.60;;;;;;;10.88;57.95;96733.30;109085;1266;22535;-78
2023/10/18 10:13:49;;;;;;;6.60;4.90;;;;;;;11.00;58.38;96728.01;109056;1273;22926;-78
2023/10/18 10:16:25;;;;;;;7.00;4.40;;;;;;;11.12;58.25;96721.80;109114;1266;23267;-78
2023/10/18 10:18:59;;;;;;;6.10;4.20;;;;;;;11.31;58.58;96719.84;109111;1265;22622;-78
2023/10/18 10:21:34;;;;;;;9.60;5.30;;;;;;;11.45;58.28;96721.40;109074;1272;24375;-78
2023/10/18 10:24:29;;;;;;;8.10;5.50;;;;;;;11.53;58.35;96716.23;109100;1273;22537;-78
2023/10/18 10:27:41;;;;;;;7.00;4.20;;;;;;;11.61;58.18;96715.77;109099;1273;22548;-78
2023/10/18 10:30:26;;;;;;;7.60;5.10;;;;;;;11.61;57.64;96722.30;108987;1265;22536;-78
2023/10/18 10:33:05;;;;;;;9.30;5.40;;;;;;;11.52;57.63;96721.54;109071;1273;22539;-78
2023/10/18 10:35:47;;;;;;;8.20;5.40;;;;;;;11.66;58.00;96715.50;109050;1267;22608;-78
2023/10/18 10:38:26;;;;;;;8.00;4.80;;;;;;;11.77;57.93;96712.09;109092;1273;22514;-78
2023/10/18 10:41:19;;;;;;;6.00;4.30;;;;;;;11.81;57.78;96713.88;109061;1273;22615;-78
2023/10/18 10:44:11;;;;;;;6.90;4.70;;;;;;;11.81;57.75;96710.58;109068;1273;22587;-78
2023/10/18 10:46:45;;;;;;;7.50;5.00;;;;;;;11.77;57.25;96706.95;109015;1273;22599;-78
2023/10/18 10:49:48;;;;;;;9.20;5.40;;;;;;;11.73;57.47;96705.98;109047;1268;22537;-78
2023/10/18 10:52:20;;;;;;;8.00;4.70;;;;;;;11.71;57.51;96703.52;109024;1273;22544;-78
2023/10/18 10:54:53;;;;;;;8.20;5.60;;;;;;;11.75;57.52;96708.83;109096;1273;22528;-78
2023/10/18 10:57:27;;;;;;;7.70;5.30;;;;;;;11.75;57.40;96707.49;109081;1265;24222;-78
2023/10/18 11:00:11;;;;;;;8.50;5.30;;;;;;;11.77;57.55;96703.75;109053;1273;25999;-78
2023/10/18 11:02:45;;;;;;;7.90;5.50;;;;;;;11.80;57.36;96702.25;109084;1273;22540;-78
2023/10/18 11:05:17;;;;;;;6.40;4.70;;;;;;;11.78;57.08;96699.60;109061;1272;22540;-78
2023/10/18 11:07:48;;;;;;;7.10;5.40;;;;;;;11.78;57.04;96695.56;109061;1265;23815;-78
2023/10/18 11:10:20;;;;;;;9.30;5.20;;;;;;;11.78;56.86;96695.41;109039;1272;22729;-78
2023/10/18 11:12:54;;;;;;;8.90;5.30;;;;;;;11.75;56.61;96691.35;109105;1272;22542;-78
2023/10/18 11:15:27;;;;;;;9.40;5.20;;;;;;;11.61;56.23;96686.39;109071;1267;22670;-78
2023/10/18 11:18:19;;;;;;;7.10;4.40;;;;;;;11.47;56.52;96682.47;109079;1272;22519;-79
2023/10/18 11:21:05;;;;;;;7.20;4.80;;;;;;;11.60;56.94;96677.98;109048;1266;25414;-79
2023/10/18 11:23:37;;;;;;;6.50;4.50;;;;;;;11.69;56.50;96674.75;109099;1272;22511;-78
2023/10/18 11:26:10;;;;;;;7.30;4.90;;;;;;;11.72;56.15;96673.38;109034;1272;24205;-78
2023/10/18 11:28:47;;;;;;;6.80;4.80;;;;;;;11.85;56.26;96672.56;109059;1273;22577;-78
2023/10/18 11:31:21;;;;;;;7.80;5.10;;;;;;;11.96;56.25;96668.98;109029;1273;22628;-78
2023/10/18 11:33:57;;;;;;;6.50;4.40;;;;;;;12.09;56.58;96666.67;109069;1273;22625;-78
2023/10/18 11:36:32;;;;;;;7.30;4.20;;;;;;;12.26;56.62;96664.49;109068;1270;22493;-78
2023/10/18 11:39:21;;;;;;;4.20;3.20;;;;;;;12.39;56.07;96664.79;109063;1273;22709;-78
2023/10/18 11:41:56;;;;;;;5.10;2.90;;;;;;;12.49;55.52;96660.38;109122;1265;22517;-78
2023/10/18 11:44:34;;;;;;;4.90;3.70;;;;;;;12.63;55.64;96657.17;109070;1267;22541;-78
2023/10/18 11:47:18;;;;;;;4.50;2.80;;;;;;;12.62;54.47;96652.88;109102;1265;22825;-79
2023/10/18 11:49:53;;;;;;;4.50;2.50;;;;;;;12.45;52.53;96654.42;109050;1273;22549;-78
2023/10/18 11:52:25;;;;;;;4.30;2.50;;;;;;;12.40;52.21;96645.57;109076;1266;22521;-78
2023/10/18 11:55:09;;;;;;;5.10;2.50;;;;;;;12.42;51.67;96643.64;109076;1266;22507;-78
2023/10/18 11:57:41;;;;;;;4.90;2.70;;;;;;;12.39;51.67;96639.40;109091;1266;25417;-78
2023/10/18 12:00:38;;;;;;;5.80;2.70;;;;;;;12.38;52.03;96636.86;109037;1272;22526;-78
2023/10/18 12:03:09;;;;;;;4.90;2.80;;;;;;;12.42;51.42;96635.34;109038;1266;22572;-78
2023/10/18 12:05:42;;;;;;;5.10;2.70;;;;;;;12.40;51.23;96634.94;109063;1265;22455;-78
2023/10/18 12:08:14;;;;;;;4.60;2.80;;;;;;;12.51;51.68;96626.75;109072;1273;22564;-78
2023/10/18 12:10:48;;;;;;;4.40;2.70;;;;;;;12.58;51.80;96624.72;109073;1272;22523;-78
2023/10/18 12:13:20;;;;;;;7.20;2.80;;;;;;;12.76;51.89;96612.39;109076;1265;23954;-78
2023/10/18 12:15:52;;;;;;;4.90;3.10;;;;;;;12.74;51.15;96607.27;109051;1273;23692;-79